Time;durP1;ratioP1;P1;durP2;ratioP2;P2;SDS_P1;SDS_P2;PMS_P1;PMS_P2;Temp;Humidity;BMP_temperature;BMP_pressure;BME280_temperature;BME280_humidity;BME280_pressure;Samples;Min_cycle;Max_cycle;Signal;HPM_P1;HPM_P2
2023/10/31 00:01:45;;;;;;;1.00;0.70;;;;;;;12.27;100.00;98784.19;5039854;28;20250;-77
2023/10/31 00:04:11;;;;;;;1.00;0.60;;;;;;;12.24;100.00;98795.53;5046209;28;20221;-76
2023/10/31 00:06:36;;;;;;;1.23;0.70;;;;;;;12.17;100.00;98794.09;5049327;28;20203;-76
2023/10/31 00:09:01;;;;;;;1.03;0.70;;;;;;;12.11;100.00;98797.78;5047526;28;20314;-76
2023/10/31 00:11:27;;;;;;;3.80;0.70;;;;;;;12.08;100.00;98797.88;5043549;28;20206;-77
2023/10/31 00:13:52;;;;;;;1.20;0.63;;;;;;;12.07;100.00;98797.94;5042426;28;20193;-76
2023/10/31 00:16:17;;;;;;;1.10;0.40;;;;;;;12.01;100.00;98809.41;5043829;28;20195;-76
2023/10/31 00:18:43;;;;;;;1.07;0.87;;;;;;;11.99;100.00;98813.81;5042005;28;20563;-76
2023/10/31 00:21:08;;;;;;;0.50;0.50;;;;;;;12.01;100.00;98799.03;5047902;28;20211;-76
2023/10/31 00:23:33;;;;;;;0.87;0.77;;;;;;;11.95;100.00;98802.66;5050656;28;20188;-76
2023/10/31 00:25:58;;;;;;;0.60;0.53;;;;;;;11.94;100.00;98801.00;5042463;28;20192;-77
2023/10/31 00:28:24;;;;;;;1.27;0.53;;;;;;;11.93;100.00;98806.22;5050531;28;20250;-77
2023/10/31 00:30:49;;;;;;;4.13;0.83;;;;;;;11.93;100.00;98804.50;5043637;28;20234;-77
2023/10/31 00:33:14;;;;;;;1.10;0.80;;;;;;;11.93;100.00;98793.25;5044123;28;20186;-76
2023/10/31 00:35:43;;;;;;;1.03;0.53;;;;;;;11.91;100.00;98803.69;5046664;28;20217;-77
2023/10/31 00:38:08;;;;;;;0.53;0.50;;;;;;;11.88;100.00;98801.22;5045683;28;20242;-77
2023/10/31 00:40:33;;;;;;;1.57;0.63;;;;;;;11.85;100.00;98793.56;5047413;28;20219;-77
2023/10/31 00:43:00;;;;;;;1.67;0.80;;;;;;;11.81;100.00;98795.44;5045487;28;20273;-76
2023/10/31 00:45:25;;;;;;;0.60;0.50;;;;;;;11.77;100.00;98793.84;5045524;28;20192;-77
2023/10/31 00:47:51;;;;;;;0.83;0.60;;;;;;;11.76;100.00;98796.50;5046999;28;20239;-76
2023/10/31 00:50:16;;;;;;;1.10;0.87;;;;;;;11.73;100.00;98805.22;5047421;28;20219;-77
2023/10/31 00:52:41;;;;;;;1.67;0.90;;;;;;;11.72;100.00;98798.38;5045610;28;20201;-76
2023/10/31 00:55:07;;;;;;;1.00;0.80;;;;;;;11.73;100.00;98803.50;5041248;28;20576;-77
2023/10/31 00:57:32;;;;;;;0.73;0.73;;;;;;;11.77;100.00;98801.63;5044333;28;20186;-76
2023/10/31 00:59:57;;;;;;;1.77;0.80;;;;;;;11.81;100.00;98800.59;5045867;28;20211;-77
2023/10/31 01:02:23;;;;;;;0.87;0.87;;;;;;;11.83;100.00;98806.59;5047039;28;20194;-76
2023/10/31 01:04:48;;;;;;;2.83;0.80;;;;;;;11.85;100.00;98811.69;5052099;28;20183;-76
2023/10/31 01:07:16;;;;;;;0.90;0.80;;;;;;;11.88;100.00;98807.22;5048853;28;20442;-76
2023/10/31 01:09:42;;;;;;;2.30;0.77;;;;;;;11.92;100.00;98812.31;5048225;28;20253;-77
2023/10/31 01:12:07;;;;;;;1.73;0.70;;;;;;;11.95;100.00;98815.63;5041772;28;20674;-77
2023/10/31 01:14:33;;;;;;;1.23;0.73;;;;;;;11.97;100.00;98815.56;5045033;28;20184;-77
2023/10/31 01:16:58;;;;;;;0.93;0.73;;;;;;;11.97;100.00;98811.22;5045707;28;20261;-76
2023/10/31 01:19:23;;;;;;;0.77;0.63;;;;;;;11.97;100.00;98819.00;5049113;28;20266;-78
2023/10/31 01:21:48;;;;;;;0.90;0.60;;;;;;;11.97;100.00;98816.41;5039569;28;20198;-76
2023/10/31 01:24:14;;;;;;;1.90;0.80;;;;;;;11.98;100.00;98794.78;5034916;28;20572;-76
2023/10/31 01:26:39;;;;;;;0.77;0.40;;;;;;;11.93;100.00;98806.22;5041550;28;20240;-76
2023/10/31 01:29:05;;;;;;;0.60;0.50;;;;;;;11.85;100.00;98803.91;5040844;28;20846;-76
2023/10/31 01:31:30;;;;;;;1.73;0.60;;;;;;;11.82;100.00;98809.22;5044111;28;20615;-77
2023/10/31 01:33:55;;;;;;;1.90;0.67;;;;;;;11.74;100.00;98812.09;5038662;28;20195;-77
2023/10/31 01:36:25;;;;;;;1.13;0.50;;;;;;;11.67;100.00;98811.47;5034833;28;20291;-77
2023/10/31 01:38:50;;;;;;;1.47;0.50;;;;;;;11.61;100.00;98814.31;5035812;28;20191;-77
2023/10/31 01:41:15;;;;;;;1.10;0.60;;;;;;;11.55;100.00;98811.94;5042048;28;20214;-76
2023/10/31 01:43:41;;;;;;;0.97;0.60;;;;;;;11.48;100.00;98824.28;5042195;28;20198;-77
2023/10/31 01:46:07;;;;;;;1.20;0.70;;;;;;;11.42;100.00;98819.31;5045841;28;20201;-77
2023/10/31 01:48:33;;;;;;;1.23;0.70;;;;;;;11.37;100.00;98822.06;5046625;28;20297;-76
2023/10/31 01:50:59;;;;;;;0.90;0.70;;;;;;;11.33;100.00;98830.00;5044711;28;20213;-76
2023/10/31 01:53:26;;;;;;;0.77;0.57;;;;;;;11.25;100.00;98838.03;5044614;28;20194;-77
2023/10/31 01:55:55;;;;;;;1.43;0.60;;;;;;;11.19;100.00;98839.09;5045449;28;20187;-77
2023/10/31 01:58:34;;;;;;;1.80;0.70;;;;;;;11.13;100.00;98845.34;5048256;28;20217;-77
2023/10/31 02:01:00;;;;;;;1.53;0.50;;;;;;;11.08;100.00;98846.41;5044729;28;20234;-76
2023/10/31 02:03:27;;;;;;;0.87;0.80;;;;;;;11.03;100.00;98856.06;5043604;28;20292;-77
2023/10/31 02:05:52;;;;;;;0.83;0.63;;;;;;;11.06;100.00;98855.97;5044157;28;20208;-76
2023/10/31 02:08:18;;;;;;;1.27;0.63;;;;;;;10.95;100.00;98853.72;5045255;28;20301;-77
2023/10/31 02:10:43;;;;;;;1.07;0.70;;;;;;;10.91;100.00;98853.00;5044241;28;20210;-77
2023/10/31 02:13:12;;;;;;;1.00;0.50;;;;;;;10.91;100.00;98854.72;5047821;28;20179;-77
2023/10/31 02:15:37;;;;;;;2.10;0.70;;;;;;;10.92;100.00;98856.41;5039529;28;22266;-77
2023/10/31 02:18:03;;;;;;;1.13;0.60;;;;;;;10.95;100.00;98856.31;5046010;28;20197;-78
2023/10/31 02:20:28;;;;;;;1.07;0.70;;;;;;;10.98;100.00;98864.00;5043741;28;20203;-76
2023/10/31 02:22:53;;;;;;;0.90;0.60;;;;;;;11.00;100.00;98875.16;5045188;28;20266;-76
2023/10/31 02:25:19;;;;;;;1.97;0.80;;;;;;;11.09;100.00;98879.16;5049336;28;20180;-77
2023/10/31 02:27:45;;;;;;;1.03;0.60;;;;;;;11.11;100.00;98890.31;5044091;28;20260;-79
2023/10/31 02:30:10;;;;;;;1.53;0.70;;;;;;;11.12;100.00;98887.66;5049854;28;20302;-77
2023/10/31 02:32:36;;;;;;;2.43;0.80;;;;;;;11.13;100.00;98889.38;5041699;28;20194;-76
2023/10/31 02:35:01;;;;;;;1.07;0.57;;;;;;;11.19;100.00;98887.47;5040239;28;20195;-77
2023/10/31 02:37:26;;;;;;;2.20;0.80;;;;;;;11.21;100.00;98891.69;5052537;28;20197;-76
2023/10/31 02:39:52;;;;;;;1.63;0.83;;;;;;;11.22;100.00;98901.16;5044712;28;20210;-77
2023/10/31 02:42:17;;;;;;;2.13;0.90;;;;;;;11.26;100.00;98904.47;5046167;28;20199;-77
2023/10/31 02:44:42;;;;;;;1.17;0.80;;;;;;;11.25;100.00;98901.06;5042761;28;20242;-78
2023/10/31 02:47:07;;;;;;;1.20;0.90;;;;;;;11.29;100.00;98902.63;5044601;28;20288;-76
2023/10/31 02:49:33;;;;;;;1.00;0.70;;;;;;;11.30;100.00;98900.91;5042700;28;20241;-76
2023/10/31 02:51:58;;;;;;;2.03;0.80;;;;;;;11.33;100.00;98908.56;5043467;28;20194;-77
2023/10/31 02:54:23;;;;;;;0.73;0.70;;;;;;;11.37;100.00;98909.28;5040514;28;20273;-78
2023/10/31 02:56:48;;;;;;;2.37;0.90;;;;;;;11.36;100.00;98908.44;5045228;28;20186;-78
2023/10/31 02:59:14;;;;;;;2.80;1.10;;;;;;;11.41;100.00;98911.72;5043431;28;20556;-78
2023/10/31 03:01:39;;;;;;;1.73;1.03;;;;;;;11.41;100.00;98921.25;5044386;28;20193;-77
2023/10/31 03:04:05;;;;;;;1.53;0.80;;;;;;;11.40;100.00;98925.56;5042741;28;20340;-77
2023/10/31 03:06:33;;;;;;;0.93;0.60;;;;;;;11.39;100.00;98925.63;5042605;28;20247;-76
2023/10/31 03:08:58;;;;;;;0.97;0.67;;;;;;;11.41;100.00;98926.44;5045835;28;20297;-77
2023/10/31 03:11:25;;;;;;;1.47;0.80;;;;;;;11.34;100.00;98920.63;5045010;28;20212;-77
2023/10/31 03:13:51;;;;;;;1.20;0.73;;;;;;;11.33;100.00;98926.69;5048052;28;20196;-77
2023/10/31 03:16:16;;;;;;;0.80;0.60;;;;;;;11.33;100.00;98931.00;5045709;28;20294;-77
2023/10/31 03:18:42;;;;;;;2.67;0.70;;;;;;;11.34;100.00;98935.28;5042558;28;20726;-77
2023/10/31 03:21:07;;;;;;;1.00;0.90;;;;;;;11.33;100.00;98937.06;5043134;28;21204;-76
2023/10/31 03:23:33;;;;;;;1.20;0.60;;;;;;;11.34;100.00;98937.88;5043048;28;20583;-77
2023/10/31 03:25:58;;;;;;;1.03;0.60;;;;;;;11.32;100.00;98947.44;5043781;28;20274;-78
2023/10/31 03:28:24;;;;;;;1.40;0.67;;;;;;;11.34;100.00;98946.53;5043879;28;20207;-77
2023/10/31 03:30:50;;;;;;;1.33;0.60;;;;;;;11.33;100.00;98952.59;5043722;28;20332;-77
2023/10/31 03:33:18;;;;;;;1.47;0.80;;;;;;;11.36;100.00;98959.41;5040123;28;20191;-76
2023/10/31 03:35:44;;;;;;;2.17;0.77;;;;;;;11.34;100.00;98940.47;5042715;28;20202;-76
2023/10/31 03:38:10;;;;;;;0.70;0.60;;;;;;;11.33;100.00;98944.81;5042776;28;20179;-77
2023/10/31 03:40:35;;;;;;;1.00;0.73;;;;;;;11.33;100.00;98952.59;5042705;28;20260;-78
2023/10/31 03:43:00;;;;;;;0.93;0.50;;;;;;;11.29;100.00;98958.78;5043187;28;20246;-76
2023/10/31 03:45:26;;;;;;;1.50;0.60;;;;;;;11.27;100.00;98961.38;5037705;28;20199;-78
2023/10/31 03:47:51;;;;;;;2.23;0.63;;;;;;;11.31;100.00;98971.66;5030612;28;20216;-77
2023/10/31 03:50:16;;;;;;;1.10;0.50;;;;;;;11.29;100.00;98969.97;5043272;28;20210;-77
2023/10/31 03:52:41;;;;;;;3.67;0.70;;;;;;;11.29;100.00;98982.91;5039939;28;20191;-77
2023/10/31 03:55:08;;;;;;;1.70;0.70;;;;;;;11.30;100.00;98991.53;5039073;28;20219;-78
2023/10/31 03:57:33;;;;;;;1.20;0.60;;;;;;;11.31;100.00;98982.88;5045720;28;20204;-78
2023/10/31 03:59:58;;;;;;;0.97;0.60;;;;;;;11.30;100.00;98983.78;5044390;28;20646;-77
2023/10/31 04:02:23;;;;;;;1.57;0.60;;;;;;;11.30;100.00;98983.78;5046558;28;20202;-76
2023/10/31 04:04:49;;;;;;;0.70;0.50;;;;;;;11.29;100.00;98988.09;5048325;28;20193;-77
2023/10/31 04:07:14;;;;;;;1.03;0.60;;;;;;;11.31;100.00;98982.00;5039315;28;20261;-77
2023/10/31 04:09:40;;;;;;;1.00;0.53;;;;;;;11.31;100.00;98976.84;5040629;28;20243;-76
2023/10/31 04:12:06;;;;;;;1.30;0.63;;;;;;;11.31;100.00;98975.09;5044505;28;20715;-78
2023/10/31 04:14:31;;;;;;;1.07;0.53;;;;;;;11.31;100.00;98987.19;5047772;28;20210;-77
2023/10/31 04:16:56;;;;;;;0.77;0.60;;;;;;;11.24;100.00;98984.81;5045574;28;20245;-76
2023/10/31 04:19:21;;;;;;;1.43;0.70;;;;;;;11.24;100.00;98983.97;5049812;28;20205;-78
2023/10/31 04:21:47;;;;;;;1.03;0.50;;;;;;;11.22;100.00;98981.44;5046335;28;20228;-77
2023/10/31 04:24:12;;;;;;;0.93;0.60;;;;;;;11.20;100.00;98972.88;5047139;28;20191;-77
2023/10/31 04:26:40;;;;;;;1.07;0.70;;;;;;;11.19;100.00;98978.94;5043348;28;20194;-76
2023/10/31 04:29:05;;;;;;;1.10;0.67;;;;;;;11.22;100.00;98975.38;5046302;28;20299;-77
2023/10/31 04:31:31;;;;;;;0.70;0.70;;;;;;;11.17;100.00;98987.66;5044925;28;20253;-77
2023/10/31 04:33:56;;;;;;;2.17;0.70;;;;;;;11.19;100.00;98978.94;5047818;28;20187;-77
2023/10/31 04:36:21;;;;;;;1.27;0.57;;;;;;;11.17;100.00;98972.13;5051971;28;20970;-77
2023/10/31 04:38:46;;;;;;;1.70;0.70;;;;;;;11.17;100.00;98974.72;5047469;28;20183;-76
2023/10/31 04:41:12;;;;;;;1.63;0.47;;;;;;;11.09;100.00;98972.38;5047304;28;20210;-77
2023/10/31 04:43:41;;;;;;;1.87;0.70;;;;;;;11.08;100.00;98970.69;5046727;28;20194;-76
2023/10/31 04:46:06;;;;;;;0.70;0.70;;;;;;;11.09;100.00;98964.59;5044982;28;20199;-78
2023/10/31 04:48:32;;;;;;;1.70;0.70;;;;;;;11.08;100.00;98971.50;5047120;28;20612;-77
2023/10/31 04:50:58;;;;;;;1.53;0.87;;;;;;;11.16;100.00;98975.59;5044471;28;20218;-79
2023/10/31 04:53:23;;;;;;;1.40;0.67;;;;;;;11.10;100.00;98982.66;5046506;28;20198;-77
2023/10/31 04:55:49;;;;;;;1.73;0.90;;;;;;;11.08;100.00;98986.22;5046015;28;20862;-77
2023/10/31 04:58:14;;;;;;;2.17;0.60;;;;;;;11.07;100.00;98987.09;5046271;28;20328;-78
2023/10/31 05:00:40;;;;;;;1.13;0.60;;;;;;;11.06;100.00;98973.28;5046224;28;20294;-77
2023/10/31 05:03:05;;;;;;;0.83;0.70;;;;;;;11.08;100.00;98981.88;5046517;28;20195;-77
2023/10/31 05:05:30;;;;;;;0.90;0.57;;;;;;;11.08;100.00;98979.28;5045965;28;20281;-77
2023/10/31 05:07:56;;;;;;;2.00;0.67;;;;;;;11.08;100.00;98987.03;5050019;28;20293;-77
2023/10/31 05:10:21;;;;;;;1.23;0.70;;;;;;;11.12;100.00;98973.13;5053147;28;20207;-77
2023/10/31 05:12:46;;;;;;;0.90;0.60;;;;;;;11.07;100.00;98971.56;5047661;28;20726;-77
2023/10/31 05:15:12;;;;;;;1.23;0.63;;;;;;;11.04;100.00;98974.25;5044797;28;20196;-77
2023/10/31 05:17:37;;;;;;;1.07;0.60;;;;;;;11.03;100.00;98973.41;5046687;28;20623;-77
2023/10/31 05:20:03;;;;;;;1.60;0.53;;;;;;;11.01;100.00;98985.56;5044996;28;20199;-76
2023/10/31 05:22:28;;;;;;;1.70;0.67;;;;;;;11.02;100.00;98973.44;5046423;28;20278;-77
2023/10/31 05:24:54;;;;;;;1.00;0.50;;;;;;;11.01;100.00;98982.97;5046062;28;20243;-78
2023/10/31 05:27:19;;;;;;;1.23;0.70;;;;;;;11.02;100.00;98983.81;5048651;28;20197;-78
2023/10/31 05:29:45;;;;;;;1.10;0.40;;;;;;;10.99;100.00;98987.34;5043401;28;20210;-76
2023/10/31 05:32:10;;;;;;;0.77;0.60;;;;;;;10.99;100.00;98997.69;5046275;28;20183;-76
2023/10/31 05:34:35;;;;;;;0.73;0.50;;;;;;;10.96;100.00;99006.41;5044511;28;20182;-77
2023/10/31 05:37:01;;;;;;;0.70;0.60;;;;;;;10.97;100.00;99012.44;5043924;28;20285;-78
2023/10/31 05:39:26;;;;;;;1.07;0.50;;;;;;;11.02;100.00;99028.69;5044760;28;20183;-77
2023/10/31 05:41:52;;;;;;;1.33;0.60;;;;;;;11.05;100.00;99033.75;5044342;28;20191;-77
2023/10/31 05:44:17;;;;;;;2.37;0.90;;;;;;;10.96;100.00;99037.50;5045700;28;20227;-77
2023/10/31 05:46:42;;;;;;;1.97;0.60;;;;;;;11.00;100.00;99025.28;5046288;28;20712;-77
2023/10/31 05:49:08;;;;;;;0.90;0.43;;;;;;;10.94;100.00;99028.06;5043197;28;20211;-76
2023/10/31 05:51:35;;;;;;;1.70;0.60;;;;;;;10.92;100.00;99035.88;5041669;28;20252;-76
2023/10/31 05:54:01;;;;;;;1.27;0.50;;;;;;;10.92;100.00;99035.00;5045076;28;20221;-76
2023/10/31 05:56:26;;;;;;;0.73;0.53;;;;;;;10.90;100.00;99039.38;5041618;28;20216;-76
2023/10/31 05:58:51;;;;;;;0.80;0.80;;;;;;;10.93;100.00;99040.16;5044101;28;20187;-76
2023/10/31 06:01:16;;;;;;;1.17;0.70;;;;;;;10.94;100.00;99038.41;5043144;28;20218;-77
2023/10/31 06:03:43;;;;;;;0.60;0.40;;;;;;;10.94;100.00;99043.59;5045425;28;20190;-77
2023/10/31 06:06:09;;;;;;;1.60;0.70;;;;;;;10.96;100.00;99036.63;5044066;28;20236;-77
2023/10/31 06:08:35;;;;;;;2.80;0.83;;;;;;;10.98;100.00;99047.78;5044393;28;20223;-77
2023/10/31 06:11:00;;;;;;;1.80;0.63;;;;;;;11.01;100.00;99058.03;5042709;28;20285;-77
2023/10/31 06:13:26;;;;;;;2.80;0.90;;;;;;;11.04;100.00;99057.09;5044780;28;20212;-78
2023/10/31 06:15:53;;;;;;;1.30;0.63;;;;;;;10.98;100.00;99058.13;5044546;28;20194;-76
2023/10/31 06:18:18;;;;;;;1.07;0.67;;;;;;;10.97;100.00;99071.97;5043663;28;20191;-77
2023/10/31 06:20:44;;;;;;;1.53;0.80;;;;;;;10.95;100.00;99068.56;5043767;28;20202;-76
2023/10/31 06:23:09;;;;;;;1.90;0.80;;;;;;;10.97;100.00;99075.38;5039821;28;20559;-77
2023/10/31 06:25:34;;;;;;;2.73;0.70;;;;;;;10.95;100.00;99071.16;5040465;28;20194;-77
2023/10/31 06:28:00;;;;;;;1.67;0.97;;;;;;;10.94;100.00;99080.69;5042519;28;20285;-77
2023/10/31 06:30:25;;;;;;;1.80;0.90;;;;;;;10.98;100.00;99089.19;5046850;28;20252;-75
2023/10/31 06:32:53;;;;;;;1.37;0.80;;;;;;;10.96;100.00;99089.25;5040978;28;20670;-76
2023/10/31 06:35:18;;;;;;;1.93;0.70;;;;;;;10.93;100.00;99086.75;5043233;28;20230;-77
2023/10/31 06:37:43;;;;;;;2.07;1.00;;;;;;;10.97;100.00;99093.50;5044148;28;20650;-76
2023/10/31 06:40:09;;;;;;;1.93;1.00;;;;;;;10.96;100.00;99093.56;5043387;28;20289;-76
2023/10/31 06:42:35;;;;;;;1.10;0.70;;;;;;;11.00;100.00;99094.31;5042044;28;20668;-76
2023/10/31 06:45:01;;;;;;;2.17;1.00;;;;;;;10.99;100.00;99090.91;5041778;28;20206;-76
2023/10/31 06:47:26;;;;;;;1.47;0.70;;;;;;;11.02;100.00;99088.22;5046090;28;20255;-77
2023/10/31 06:49:52;;;;;;;3.03;1.07;;;;;;;11.02;100.00;99095.13;5044283;28;20223;-76
2023/10/31 06:52:17;;;;;;;1.53;0.80;;;;;;;11.00;100.00;99092.59;5044147;28;20182;-76
2023/10/31 06:54:42;;;;;;;2.57;1.07;;;;;;;11.04;100.00;99096.75;5042335;28;20191;-78
2023/10/31 06:57:08;;;;;;;4.17;1.00;;;;;;;11.01;100.00;99096.00;5041974;28;20717;-78
2023/10/31 06:59:34;;;;;;;2.33;1.03;;;;;;;11.02;100.00;99101.16;5047509;28;20233;-78
2023/10/31 07:01:59;;;;;;;1.70;0.70;;;;;;;11.01;100.00;99108.97;5046082;28;20206;-78
2023/10/31 07:04:24;;;;;;;2.77;1.23;;;;;;;11.02;100.00;99108.94;5064100;28;20200;-78
2023/10/31 07:06:56;;;;;;;2.17;1.40;;;;;;;11.08;100.00;99113.06;5049558;28;20200;-78
2023/10/31 07:09:22;;;;;;;1.90;1.00;;;;;;;11.08;100.00;99115.66;5040666;28;20747;-78
2023/10/31 07:11:47;;;;;;;2.53;1.00;;;;;;;11.15;100.00;99113.75;5041581;28;20202;-76
2023/10/31 07:14:13;;;;;;;1.03;0.83;;;;;;;11.16;100.00;99128.38;5043640;28;20270;-77
2023/10/31 07:16:38;;;;;;;3.10;1.27;;;;;;;11.17;100.00;99124.91;5039855;28;20656;-80
2023/10/31 07:19:03;;;;;;;4.77;2.13;;;;;;;11.23;100.00;99135.06;5040304;28;20224;-78
2023/10/31 07:21:28;;;;;;;2.13;1.10;;;;;;;11.24;100.00;99132.44;5036585;28;20208;-78
2023/10/31 07:23:55;;;;;;;1.80;0.90;;;;;;;11.26;100.00;99129.78;5040246;28;20195;-77
2023/10/31 07:26:21;;;;;;;1.37;0.83;;;;;;;11.29;100.00;99138.31;5043979;28;20210;-78
2023/10/31 07:28:47;;;;;;;1.43;0.90;;;;;;;11.29;100.00;99135.72;5044291;28;20866;-78
2023/10/31 07:31:12;;;;;;;1.97;0.90;;;;;;;11.35;100.00;99145.03;5042735;28;20218;-77
2023/10/31 07:33:38;;;;;;;1.47;1.20;;;;;;;11.39;100.00;99145.81;5042362;28;20193;-76
2023/10/31 07:36:04;;;;;;;1.00;0.87;;;;;;;11.39;100.00;99144.06;5038403;28;20191;-76
2023/10/31 07:38:29;;;;;;;1.40;1.00;;;;;;;11.42;100.00;99150.88;5040802;28;20184;-77
2023/10/31 07:40:54;;;;;;;1.70;0.80;;;;;;;11.46;100.00;99149.06;5042608;28;20264;-75
2023/10/31 07:43:20;;;;;;;2.83;1.03;;;;;;;11.51;100.00;99160.13;5043235;28;20190;-76
2023/10/31 07:45:45;;;;;;;1.67;0.90;;;;;;;11.55;100.00;99160.00;5041205;28;20198;-76
2023/10/31 07:48:10;;;;;;;2.50;1.17;;;;;;;11.58;100.00;99159.88;5043121;28;20206;-77
2023/10/31 07:50:36;;;;;;;1.50;0.97;;;;;;;11.64;100.00;99160.59;5041714;28;20225;-77
2023/10/31 07:53:01;;;;;;;1.60;1.00;;;;;;;11.68;100.00;99157.84;5037857;28;20190;-77
2023/10/31 07:55:27;;;;;;;0.90;0.77;;;;;;;11.73;100.00;99155.09;5042066;28;20648;-77
2023/10/31 07:57:53;;;;;;;0.80;0.70;;;;;;;11.80;100.00;99166.97;5043213;28;20215;-77
2023/10/31 08:00:18;;;;;;;0.93;0.70;;;;;;;11.89;100.00;99166.69;5041596;28;20256;-76
2023/10/31 08:02:43;;;;;;;1.47;0.70;;;;;;;11.98;100.00;99162.97;5039170;28;20265;-77
2023/10/31 08:05:10;;;;;;;2.80;1.23;;;;;;;12.07;100.00;99164.41;5043233;28;20214;-77
2023/10/31 08:07:35;;;;;;;4.17;1.30;;;;;;;12.13;100.00;99166.81;5042789;28;20194;-78
2023/10/31 08:10:01;;;;;;;3.70;1.30;;;;;;;12.16;100.00;99173.63;5043340;28;20215;-77
2023/10/31 08:12:26;;;;;;;3.00;1.03;;;;;;;12.20;100.00;99173.47;5041953;28;20656;-78
2023/10/31 08:14:52;;;;;;;2.10;1.40;;;;;;;12.25;100.00;99185.44;5040242;28;20188;-77
2023/10/31 08:17:17;;;;;;;2.17;1.00;;;;;;;12.31;100.00;99188.69;5044030;28;20188;-77
2023/10/31 08:19:42;;;;;;;1.90;1.07;;;;;;;12.39;100.00;99197.97;5043093;28;20241;-76
2023/10/31 08:22:08;;;;;;;1.83;1.20;;;;;;;12.45;100.00;99196.00;5037357;28;20261;-76
2023/10/31 08:24:35;;;;;;;2.17;1.10;;;;;;;12.52;100.00;99199.25;5038387;28;20294;-76
2023/10/31 08:27:01;;;;;;;2.20;1.17;;;;;;;12.57;100.00;99209.47;5042944;28;20197;-77
2023/10/31 08:29:27;;;;;;;2.03;0.97;;;;;;;12.58;100.00;99201.59;5041446;28;20278;-76
2023/10/31 08:31:52;;;;;;;3.20;1.20;;;;;;;12.62;100.00;99198.00;5037488;28;20199;-77
2023/10/31 08:34:17;;;;;;;3.20;1.40;;;;;;;12.68;100.00;99215.13;5038759;28;20738;-76
2023/10/31 08:36:43;;;;;;;2.80;1.30;;;;;;;12.75;100.00;99218.34;5037466;28;20191;-76
2023/10/31 08:39:08;;;;;;;3.57;0.93;;;;;;;12.80;100.00;99217.28;5040877;28;20191;-77
2023/10/31 08:41:33;;;;;;;1.73;1.10;;;;;;;12.85;100.00;99226.66;5038343;28;20208;-77
2023/10/31 08:43:59;;;;;;;2.37;1.13;;;;;;;12.91;100.00;99223.84;5040184;28;20186;-76
2023/10/31 08:46:25;;;;;;;3.43;1.33;;;;;;;13.00;100.00;99226.13;5036723;28;20741;-77
2023/10/31 08:48:50;;;;;;;2.93;1.00;;;;;;;13.09;100.00;99225.75;5040689;28;20625;-77
2023/10/31 08:51:15;;;;;;;1.97;0.90;;;;;;;13.18;100.00;99223.75;5034479;28;20219;-76
2023/10/31 08:53:41;;;;;;;5.00;1.50;;;;;;;13.23;100.00;99225.28;5037426;28;20185;-76
2023/10/31 08:56:07;;;;;;;2.93;1.20;;;;;;;13.31;100.00;99222.38;5045688;28;20276;-76
2023/10/31 08:58:32;;;;;;;3.30;1.43;;;;;;;13.39;100.00;99230.72;5046633;28;20745;-76
2023/10/31 09:00:57;;;;;;;2.43;1.30;;;;;;;13.43;100.00;99226.31;5049871;28;20199;-76
2023/10/31 09:03:23;;;;;;;1.87;0.90;;;;;;;13.46;100.00;99233.16;5052853;28;20261;-76
2023/10/31 09:05:48;;;;;;;3.27;1.30;;;;;;;13.47;100.00;99229.63;5044808;28;20782;-76
2023/10/31 09:08:14;;;;;;;2.87;1.00;;;;;;;13.46;100.00;99236.56;5042406;28;20195;-76
2023/10/31 09:10:39;;;;;;;3.13;1.20;;;;;;;13.42;100.00;99229.81;5044233;28;20316;-76
2023/10/31 09:13:05;;;;;;;1.57;1.10;;;;;;;13.39;100.00;99237.69;5044765;28;20294;-76
2023/10/31 09:15:30;;;;;;;2.67;1.10;;;;;;;13.35;100.00;99229.19;5044361;28;20275;-77
2023/10/31 09:17:55;;;;;;;3.17;1.07;;;;;;;13.26;100.00;99237.28;5044731;28;20185;-77
2023/10/31 09:20:21;;;;;;;2.97;1.40;;;;;;;13.20;100.00;99222.78;5038406;28;20697;-77
2023/10/31 09:22:46;;;;;;;2.47;1.30;;;;;;;13.16;100.00;99236.78;5037347;28;20190;-77
2023/10/31 09:25:11;;;;;;;2.23;1.00;;;;;;;13.15;100.00;99237.72;5044534;28;20251;-77
2023/10/31 09:27:40;;;;;;;2.97;1.43;;;;;;;13.14;100.00;99242.94;5039302;28;20196;-77
2023/10/31 09:30:06;;;;;;;2.77;1.40;;;;;;;13.10;100.00;99244.81;5039511;28;20226;-77
2023/10/31 09:32:31;;;;;;;3.77;1.50;;;;;;;13.07;100.00;99240.59;5043629;28;20269;-77
2023/10/31 09:34:57;;;;;;;3.57;1.60;;;;;;;13.07;100.00;99245.78;5037464;28;20270;-77
2023/10/31 09:37:23;;;;;;;3.40;1.10;;;;;;;13.13;100.00;99246.44;5040743;28;20213;-77
2023/10/31 09:39:48;;;;;;;2.40;1.17;;;;;;;13.18;100.00;99241.94;5036810;28;20714;-78
2023/10/31 09:42:13;;;;;;;2.10;1.30;;;;;;;13.20;100.00;99237.53;5042592;28;20231;-76
2023/10/31 09:44:38;;;;;;;2.80;1.20;;;;;;;13.18;100.00;99241.94;5037757;28;20540;-77
2023/10/31 09:47:06;;;;;;;2.60;1.23;;;;;;;13.21;100.00;99252.22;5040961;28;20185;-77
2023/10/31 09:49:31;;;;;;;3.73;1.40;;;;;;;13.26;100.00;99243.34;5038568;28;20206;-77
2023/10/31 09:51:58;;;;;;;3.60;1.37;;;;;;;13.27;100.00;99245.03;5039124;28;20964;-77
2023/10/31 09:54:25;;;;;;;3.70;1.30;;;;;;;13.32;100.00;99255.28;5038095;28;20273;-77
2023/10/31 09:56:51;;;;;;;2.50;1.20;;;;;;;13.34;100.00;99250.88;5036181;28;20200;-78
2023/10/31 09:59:16;;;;;;;3.50;1.20;;;;;;;13.37;100.00;99240.38;5049599;28;21003;-77
2023/10/31 10:01:42;;;;;;;2.83;1.23;;;;;;;13.39;100.00;99246.31;5033575;28;21046;-79
2023/10/31 10:04:07;;;;;;;2.37;1.50;;;;;;;13.45;100.00;99247.03;5035659;28;20187;-77
2023/10/31 10:06:33;;;;;;;3.53;1.30;;;;;;;13.47;100.00;99250.44;5037878;28;20190;-77
2023/10/31 10:08:58;;;;;;;3.13;1.17;;;;;;;13.49;100.00;99248.63;5036374;28;20214;-77
2023/10/31 10:11:24;;;;;;;4.27;1.40;;;;;;;13.49;100.00;99257.25;5037031;28;20218;-77
2023/10/31 10:13:52;;;;;;;1.67;1.00;;;;;;;13.52;100.00;99251.13;5035045;28;20191;-78
2023/10/31 10:16:31;;;;;;;2.30;1.30;;;;;;;13.57;100.00;99246.56;5035016;28;20198;-77
2023/10/31 10:18:56;;;;;;;1.87;1.10;;;;;;;13.67;100.00;99252.28;5040239;28;20273;-78
2023/10/31 10:21:21;;;;;;;2.50;1.40;;;;;;;13.74;100.00;99251.16;5041806;28;20308;-77
2023/10/31 10:23:49;;;;;;;2.90;1.20;;;;;;;13.75;100.00;99252.84;5043860;28;20225;-76
2023/10/31 10:26:14;;;;;;;2.53;1.10;;;;;;;13.84;100.00;99247.28;5043640;28;20244;-77
2023/10/31 10:28:40;;;;;;;2.53;1.00;;;;;;;13.97;100.00;99250.25;5043257;28;20206;-77
2023/10/31 10:31:06;;;;;;;4.40;1.60;;;;;;;14.08;100.00;99247.19;5037858;28;20240;-76
2023/10/31 10:33:34;;;;;;;3.50;1.57;;;;;;;14.25;100.00;99246.53;5045189;28;20194;-77
2023/10/31 10:35:59;;;;;;;2.30;1.00;;;;;;;14.39;100.00;99255.53;5041761;28;20199;-77
2023/10/31 10:38:25;;;;;;;2.37;1.30;;;;;;;14.45;100.00;99250.91;5045036;28;20186;-78
2023/10/31 10:40:52;;;;;;;3.57;1.03;;;;;;;14.46;100.00;99247.38;5042690;28;20713;-75
2023/10/31 10:43:25;;;;;;;3.13;1.10;;;;;;;14.61;100.00;99250.25;5043038;28;20187;-76
2023/10/31 10:45:56;;;;;;;2.83;1.10;;;;;;;14.79;100.00;99246.03;5042304;28;20179;-77
2023/10/31 10:48:21;;;;;;;2.60;1.00;;;;;;;14.95;100.00;99238.44;5047063;28;20265;-76
2023/10/31 10:50:57;;;;;;;2.73;1.20;;;;;;;14.97;100.00;99238.34;5048730;28;20297;-77
2023/10/31 10:53:26;;;;;;;2.80;1.03;;;;;;;14.96;100.00;99247.06;5041638;28;20633;-77
2023/10/31 10:55:56;;;;;;;3.10;1.10;;;;;;;14.91;100.00;99242.06;5033115;28;20218;-76
2023/10/31 10:58:41;;;;;;;2.07;1.23;;;;;;;14.92;100.00;99246.38;5042411;28;20916;-76
2023/10/31 11:01:08;;;;;;;2.30;0.80;;;;;;;15.03;100.00;99246.72;5049869;28;20691;-76
2023/10/31 11:03:34;;;;;;;1.93;1.30;;;;;;;15.14;100.00;99246.25;5043335;28;20660;-77
2023/10/31 11:05:59;;;;;;;1.90;1.10;;;;;;;15.23;100.00;99234.59;5048193;28;20201;-77
2023/10/31 11:08:25;;;;;;;1.87;1.00;;;;;;;15.34;100.00;99242.75;5040472;28;20290;-77
2023/10/31 11:10:53;;;;;;;3.90;1.30;;;;;;;15.46;100.00;99233.53;5038629;28;20210;-76
2023/10/31 11:13:19;;;;;;;2.07;1.10;;;;;;;15.50;100.00;99245.50;5040412;28;20327;-77
2023/10/31 11:15:45;;;;;;;2.27;1.00;;;;;;;15.51;100.00;99236.75;5042030;28;20974;-76
2023/10/31 11:18:11;;;;;;;3.57;1.03;;;;;;;15.42;100.00;99246.78;5038319;28;20196;-77